This is the latest recevied weather packets stored in our database for station/object AD7ZD. If no packets are shown the sender has not sent any weather packets the latest 10 day(s).
| Time | Temp. | Humidity | Pressure | Rain* | Wind** | Luminosity | Snow |
|---|---|---|---|---|---|---|---|
| 1777927157 | 16.67° C | 47% | 1007.2 hPa | 0 mm | - | 788 W/m² | - |
| 1777926854 | 16.67° C | 47% | 1007.2 hPa | 0 mm | - | 795 W/m² | - |
| 1777926549 | 17.78° C | 45% | 1007.2 hPa | 0 mm | - | 784 W/m² | - |
| 1777926247 | 16.67° C | 46% | 1007.2 hPa | 0 mm | - | 803 W/m² | - |
| 1777925943 | 17.22° C | 46% | 1007.5 hPa | 0 mm | - | 782 W/m² | - |
| 1777925641 | 16.11° C | 50% | 1007.6 hPa | 0 mm | - | 778 W/m² | - |
| 1777925338 | 16.11° C | 51% | 1007.6 hPa | 0 mm | - | 781 W/m² | - |
| 1777925034 | 16.11° C | 51% | 1007.3 hPa | 0 mm | - | 806 W/m² | - |
| 1777924731 | 16.67° C | 48% | 1007.6 hPa | 0 mm | - | 736 W/m² | - |
| 1777924426 | 17.22° C | 46% | 1007.3 hPa | 0 mm | - | 866 W/m² | - |
| 1777924123 | 16.67° C | 44% | 1007.5 hPa | 0 mm | - | 700 W/m² | - |
| 1777923819 | 16.11° C | 46% | 1007.5 hPa | 0 mm | - | 758 W/m² | - |
| 1777923515 | 15.56° C | 46% | 1007.6 hPa | 0 mm | - | 836 W/m² | - |
| 1777923213 | 16.11° C | 46% | 1007.6 hPa | 0 mm | - | 847 W/m² | - |
| 1777922912 | 15.56° C | 47% | 1007.8 hPa | 0 mm | - | 542 W/m² | - |
| 1777922609 | 15.56° C | 47% | 1007.6 hPa | 0 mm | - | 615 W/m² | - |
| 1777922307 | 15.56° C | 46% | 1008 hPa | 0 mm | - | 822 W/m² | - |
| 1777922004 | 15° C | 48% | 1007.8 hPa | 0 mm | - | 714 W/m² | - |
| 1777921700 | 15° C | 49% | 1008.1 hPa | 0 mm | - | 363 W/m² | - |
| 1777921396 | 15° C | 50% | 1008.1 hPa | 0 mm | - | 823 W/m² | - |
| 1777921093 | 15° C | 49% | 1008.3 hPa | 0 mm | - | 674 W/m² | - |
| 1777920790 | 15° C | 52% | 1008.1 hPa | 0 mm | - | 648 W/m² | - |
| 1777920486 | 14.44° C | 54% | 1008.1 hPa | 0 mm | - | 494 W/m² | - |
| 1777920182 | 14.44° C | 54% | 1008.5 hPa | 0 mm | - | 369 W/m² | - |
| 1777919878 | 14.44° C | 53% | 1008.5 hPa | 0 mm | - | 369 W/m² | - |
* Rain latest hour (hover to see other rain measurements)
** Current wind speed in m/s (hover to see current wind gust speed)